sensor_id;sensor_type;location;lat;lon;timestamp;temperature;humidity
52879;DHT22;38747;53.140;6.498;2022-10-26T00:00:49;10.40;99.90
52879;DHT22;38747;53.140;6.498;2022-10-26T00:03:15;10.40;99.90
52879;DHT22;38747;53.140;6.498;2022-10-26T00:05:40;10.30;99.90
52879;DHT22;38747;53.140;6.498;2022-10-26T00:08:06;10.30;99.90
52879;DHT22;38747;53.140;6.498;2022-10-26T00:10:36;10.40;99.90
52879;DHT22;38747;53.140;6.498;2022-10-26T00:13:04;10.40;99.90
52879;DHT22;38747;53.140;6.498;2022-10-26T00:15:30;10.30;99.90
52879;DHT22;38747;53.140;6.498;2022-10-26T00:17:56;10.30;99.90
52879;DHT22;38747;53.140;6.498;2022-10-26T00:20:21;10.30;99.90
52879;DHT22;38747;53.140;6.498;2022-10-26T00:22:47;10.30;99.90
52879;DHT22;38747;53.140;6.498;2022-10-26T00:25:13;10.30;99.90
52879;DHT22;38747;53.140;6.498;2022-10-26T00:27:38;10.40;99.90
52879;DHT22;38747;53.140;6.498;2022-10-26T00:30:05;10.30;99.90
52879;DHT22;38747;53.140;6.498;2022-10-26T00:32:31;10.30;99.90
52879;DHT22;38747;53.140;6.498;2022-10-26T00:34:57;10.30;99.90
52879;DHT22;38747;53.140;6.498;2022-10-26T00:37:23;10.30;99.90
52879;DHT22;38747;53.140;6.498;2022-10-26T00:39:48;10.30;99.90
52879;DHT22;38747;53.140;6.498;2022-10-26T00:42:18;10.30;99.90
52879;DHT22;38747;53.140;6.498;2022-10-26T00:47:28;10.30;99.90
52879;DHT22;38747;53.140;6.498;2022-10-26T00:49:57;10.30;99.90
52879;DHT22;38747;53.140;6.498;2022-10-26T00:52:25;10.30;99.90
52879;DHT22;38747;53.140;6.498;2022-10-26T00:54:52;10.30;99.90
52879;DHT22;38747;53.140;6.498;2022-10-26T00:57:18;10.30;99.90
52879;DHT22;38747;53.140;6.498;2022-10-26T00:59:45;10.20;99.90
52879;DHT22;38747;53.140;6.498;2022-10-26T01:02:12;10.30;99.90
52879;DHT22;38747;53.140;6.498;2022-10-26T01:04:38;10.20;99.90
52879;DHT22;38747;53.140;6.498;2022-10-26T01:07:05;10.20;99.90
52879;DHT22;38747;53.140;6.498;2022-10-26T01:09:31;10.20;99.90
52879;DHT22;38747;53.140;6.498;2022-10-26T01:11:57;10.20;99.90
52879;DHT22;38747;53.140;6.498;2022-10-26T01:14:24;10.20;99.90
52879;DHT22;38747;53.140;6.498;2022-10-26T01:17:24;10.20;99.90
52879;DHT22;38747;53.140;6.498;2022-10-26T01:26:12;10.10;99.90
52879;DHT22;38747;53.140;6.498;2022-10-26T01:31:36;10.10;99.90
52879;DHT22;38747;53.140;6.498;2022-10-26T01:34:13;10.00;99.90
52879;DHT22;38747;53.140;6.498;2022-10-26T01:36:55;10.00;99.90
52879;DHT22;38747;53.140;6.498;2022-10-26T01:39:32;10.00;99.90
52879;DHT22;38747;53.140;6.498;2022-10-26T01:42:02;10.00;99.90
52879;DHT22;38747;53.140;6.498;2022-10-26T01:44:35;9.90;99.90
52879;DHT22;38747;53.140;6.498;2022-10-26T01:47:07;9.90;99.90
52879;DHT22;38747;53.140;6.498;2022-10-26T01:49:37;9.90;99.90
52879;DHT22;38747;53.140;6.498;2022-10-26T01:52:04;9.90;99.90
52879;DHT22;38747;53.140;6.498;2022-10-26T01:54:29;9.80;99.90
52879;DHT22;38747;53.140;6.498;2022-10-26T01:57:00;9.80;99.90
52879;DHT22;38747;53.140;6.498;2022-10-26T02:05:24;9.80;99.90
52879;DHT22;38747;53.140;6.498;2022-10-26T02:08:22;9.80;99.90
52879;DHT22;38747;53.140;6.498;2022-10-26T02:11:10;9.70;99.90
52879;DHT22;38747;53.140;6.498;2022-10-26T02:19:28;9.70;99.90
52879;DHT22;38747;53.140;6.498;2022-10-26T02:22:02;9.70;99.90
52879;DHT22;38747;53.140;6.498;2022-10-26T02:24:30;9.60;99.90
52879;DHT22;38747;53.140;6.498;2022-10-26T02:26:59;9.60;99.90
52879;DHT22;38747;53.140;6.498;2022-10-26T02:29:26;9.60;99.90
52879;DHT22;38747;53.140;6.498;2022-10-26T02:31:54;9.60;99.90
52879;DHT22;38747;53.140;6.498;2022-10-26T02:34:23;9.60;99.90
52879;DHT22;38747;53.140;6.498;2022-10-26T02:36:52;9.60;99.90
52879;DHT22;38747;53.140;6.498;2022-10-26T02:39:20;9.50;99.90
52879;DHT22;38747;53.140;6.498;2022-10-26T02:41:47;9.50;99.90
52879;DHT22;38747;53.140;6.498;2022-10-26T02:44:22;9.50;99.90
52879;DHT22;38747;53.140;6.498;2022-10-26T02:46:50;9.40;99.90
52879;DHT22;38747;53.140;6.498;2022-10-26T02:49:16;9.40;99.90
52879;DHT22;38747;53.140;6.498;2022-10-26T02:52:05;9.40;99.90
52879;DHT22;38747;53.140;6.498;2022-10-26T02:54:59;9.40;99.90
52879;DHT22;38747;53.140;6.498;2022-10-26T02:57:40;9.30;99.90
52879;DHT22;38747;53.140;6.498;2022-10-26T03:00:12;9.30;99.90
52879;DHT22;38747;53.140;6.498;2022-10-26T03:02:40;9.20;99.90
52879;DHT22;38747;53.140;6.498;2022-10-26T03:05:22;9.20;99.90
52879;DHT22;38747;53.140;6.498;2022-10-26T03:07:48;9.20;99.90
52879;DHT22;38747;53.140;6.498;2022-10-26T03:10:14;9.20;99.90
52879;DHT22;38747;53.140;6.498;2022-10-26T03:12:40;9.20;99.90
52879;DHT22;38747;53.140;6.498;2022-10-26T03:15:06;9.10;99.90
52879;DHT22;38747;53.140;6.498;2022-10-26T03:17:31;9.10;99.90
52879;DHT22;38747;53.140;6.498;2022-10-26T03:19:57;9.10;99.90
52879;DHT22;38747;53.140;6.498;2022-10-26T03:22:23;9.10;99.90
52879;DHT22;38747;53.140;6.498;2022-10-26T03:24:48;9.10;99.90
52879;DHT22;38747;53.140;6.498;2022-10-26T03:27:14;9.10;99.90
52879;DHT22;38747;53.140;6.498;2022-10-26T03:29:40;9.10;99.90
52879;DHT22;38747;53.140;6.498;2022-10-26T03:32:06;9.10;99.90
52879;DHT22;38747;53.140;6.498;2022-10-26T03:34:31;9.00;99.90
52879;DHT22;38747;53.140;6.498;2022-10-26T03:36:57;9.00;99.90
52879;DHT22;38747;53.140;6.498;2022-10-26T03:39:23;9.00;99.90
52879;DHT22;38747;53.140;6.498;2022-10-26T03:41:48;9.00;99.90
52879;DHT22;38747;53.140;6.498;2022-10-26T03:44:14;9.00;99.90
52879;DHT22;38747;53.140;6.498;2022-10-26T03:46:39;9.00;99.90
52879;DHT22;38747;53.140;6.498;2022-10-26T03:49:05;9.00;99.90
52879;DHT22;38747;53.140;6.498;2022-10-26T03:51:31;9.00;99.90
52879;DHT22;38747;53.140;6.498;2022-10-26T03:53:57;9.00;99.90
52879;DHT22;38747;53.140;6.498;2022-10-26T03:56:22;9.00;99.90
52879;DHT22;38747;53.140;6.498;2022-10-26T03:58:48;9.00;99.90
52879;DHT22;38747;53.140;6.498;2022-10-26T04:01:14;9.00;99.90
52879;DHT22;38747;53.140;6.498;2022-10-26T04:03:39;9.00;99.90
52879;DHT22;38747;53.140;6.498;2022-10-26T04:06:05;9.10;99.90
52879;DHT22;38747;53.140;6.498;2022-10-26T04:08:31;9.10;99.90
52879;DHT22;38747;53.140;6.498;2022-10-26T04:10:57;9.10;99.90
52879;DHT22;38747;53.140;6.498;2022-10-26T04:13:23;9.10;99.90
52879;DHT22;38747;53.140;6.498;2022-10-26T04:15:48;9.10;99.90
52879;DHT22;38747;53.140;6.498;2022-10-26T04:18:14;9.10;99.90
52879;DHT22;38747;53.140;6.498;2022-10-26T04:20:40;9.10;99.90
52879;DHT22;38747;53.140;6.498;2022-10-26T04:23:10;9.20;99.90
52879;DHT22;38747;53.140;6.498;2022-10-26T04:25:36;9.20;99.90
52879;DHT22;38747;53.140;6.498;2022-10-26T04:28:03;9.20;99.90
52879;DHT22;38747;53.140;6.498;2022-10-26T04:30:29;9.20;99.90
52879;DHT22;38747;53.140;6.498;2022-10-26T04:32:55;9.20;99.90
52879;DHT22;38747;53.140;6.498;2022-10-26T04:35:21;9.20;99.90
52879;DHT22;38747;53.140;6.498;2022-10-26T04:37:46;9.20;99.90
52879;DHT22;38747;53.140;6.498;2022-10-26T04:40:12;9.20;99.90
52879;DHT22;38747;53.140;6.498;2022-10-26T04:42:45;9.20;99.90
52879;DHT22;38747;53.140;6.498;2022-10-26T04:45:13;9.30;99.90
52879;DHT22;38747;53.140;6.498;2022-10-26T04:47:39;9.30;99.90
52879;DHT22;38747;53.140;6.498;2022-10-26T04:50:06;9.30;99.90
52879;DHT22;38747;53.140;6.498;2022-10-26T04:52:31;9.30;99.90
52879;DHT22;38747;53.140;6.498;2022-10-26T04:54:57;9.30;99.90
52879;DHT22;38747;53.140;6.498;2022-10-26T04:57:22;9.40;99.90
52879;DHT22;38747;53.140;6.498;2022-10-26T04:59:48;9.40;99.90
52879;DHT22;38747;53.140;6.498;2022-10-26T05:02:14;9.40;99.90
52879;DHT22;38747;53.140;6.498;2022-10-26T05:04:39;9.40;99.90
52879;DHT22;38747;53.140;6.498;2022-10-26T05:07:05;9.50;99.90
52879;DHT22;38747;53.140;6.498;2022-10-26T05:09:31;9.50;99.90
52879;DHT22;38747;53.140;6.498;2022-10-26T05:11:56;9.50;99.90
52879;DHT22;38747;53.140;6.498;2022-10-26T05:14:22;9.50;99.90
52879;DHT22;38747;53.140;6.498;2022-10-26T05:16:49;9.50;99.90
52879;DHT22;38747;53.140;6.498;2022-10-26T05:19:15;9.60;99.90
52879;DHT22;38747;53.140;6.498;2022-10-26T05:21:41;9.60;99.90
52879;DHT22;38747;53.140;6.498;2022-10-26T05:24:07;9.60;99.90
52879;DHT22;38747;53.140;6.498;2022-10-26T05:26:32;9.60;99.90
52879;DHT22;38747;53.140;6.498;2022-10-26T05:28:58;9.60;99.90
52879;DHT22;38747;53.140;6.498;2022-10-26T05:31:24;9.60;99.90
52879;DHT22;38747;53.140;6.498;2022-10-26T05:33:50;9.60;99.90
52879;DHT22;38747;53.140;6.498;2022-10-26T05:36:19;9.60;99.90
52879;DHT22;38747;53.140;6.498;2022-10-26T05:38:45;9.60;99.90
52879;DHT22;38747;53.140;6.498;2022-10-26T05:41:11;9.60;99.90
52879;DHT22;38747;53.140;6.498;2022-10-26T05:43:37;9.70;99.90
52879;DHT22;38747;53.140;6.498;2022-10-26T05:46:03;9.70;99.90
52879;DHT22;38747;53.140;6.498;2022-10-26T05:48:29;9.70;99.90
52879;DHT22;38747;53.140;6.498;2022-10-26T05:50:58;9.70;99.90
52879;DHT22;38747;53.140;6.498;2022-10-26T05:53:24;9.70;99.90
52879;DHT22;38747;53.140;6.498;2022-10-26T05:55:50;9.70;99.90
52879;DHT22;38747;53.140;6.498;2022-10-26T05:58:16;9.70;99.90
52879;DHT22;38747;53.140;6.498;2022-10-26T06:06:01;9.80;99.90
52879;DHT22;38747;53.140;6.498;2022-10-26T06:08:28;9.90;99.90
52879;DHT22;38747;53.140;6.498;2022-10-26T06:10:56;9.90;99.90
52879;DHT22;38747;53.140;6.498;2022-10-26T06:13:27;9.90;99.90
52879;DHT22;38747;53.140;6.498;2022-10-26T06:19:26;9.90;99.90
52879;DHT22;38747;53.140;6.498;2022-10-26T06:28:12;10.00;99.90
52879;DHT22;38747;53.140;6.498;2022-10-26T06:30:44;10.10;99.90
52879;DHT22;38747;53.140;6.498;2022-10-26T06:33:11;10.10;99.90
52879;DHT22;38747;53.140;6.498;2022-10-26T06:35:44;10.10;99.90
52879;DHT22;38747;53.140;6.498;2022-10-26T06:38:17;10.10;99.90
52879;DHT22;38747;53.140;6.498;2022-10-26T06:40:47;10.20;99.90
52879;DHT22;38747;53.140;6.498;2022-10-26T06:43:28;10.20;99.90
52879;DHT22;38747;53.140;6.498;2022-10-26T06:46:13;10.20;99.90
52879;DHT22;38747;53.140;6.498;2022-10-26T06:48:59;10.30;99.90
52879;DHT22;38747;53.140;6.498;2022-10-26T06:51:28;10.30;99.90
52879;DHT22;38747;53.140;6.498;2022-10-26T06:54:22;10.30;99.90
52879;DHT22;38747;53.140;6.498;2022-10-26T06:56:50;10.30;99.90
52879;DHT22;38747;53.140;6.498;2022-10-26T07:02:12;10.40;99.90
52879;DHT22;38747;53.140;6.498;2022-10-26T07:04:42;10.40;99.90
52879;DHT22;38747;53.140;6.498;2022-10-26T07:07:11;10.40;99.90
52879;DHT22;38747;53.140;6.498;2022-10-26T07:09:38;10.40;99.90
52879;DHT22;38747;53.140;6.498;2022-10-26T07:12:04;10.40;99.90
52879;DHT22;38747;53.140;6.498;2022-10-26T07:14:30;10.40;99.90
52879;DHT22;38747;53.140;6.498;2022-10-26T07:16:55;10.50;99.90
52879;DHT22;38747;53.140;6.498;2022-10-26T07:19:21;10.50;99.90
52879;DHT22;38747;53.140;6.498;2022-10-26T07:21:47;10.50;99.90
52879;DHT22;38747;53.140;6.498;2022-10-26T07:24:13;10.50;99.90
52879;DHT22;38747;53.140;6.498;2022-10-26T07:26:38;10.50;99.90
52879;DHT22;38747;53.140;6.498;2022-10-26T07:29:04;10.50;99.90
52879;DHT22;38747;53.140;6.498;2022-10-26T07:31:30;10.60;99.90
52879;DHT22;38747;53.140;6.498;2022-10-26T07:33:55;10.60;99.90
52879;DHT22;38747;53.140;6.498;2022-10-26T07:36:21;10.60;99.90
52879;DHT22;38747;53.140;6.498;2022-10-26T07:38:50;10.70;99.90
52879;DHT22;38747;53.140;6.498;2022-10-26T07:41:16;10.80;99.90
52879;DHT22;38747;53.140;6.498;2022-10-26T07:43:41;10.80;99.90
52879;DHT22;38747;53.140;6.498;2022-10-26T07:46:09;10.80;99.90
52879;DHT22;38747;53.140;6.498;2022-10-26T07:48:35;10.90;99.90
52879;DHT22;38747;53.140;6.498;2022-10-26T07:51:01;10.90;99.90
52879;DHT22;38747;53.140;6.498;2022-10-26T07:53:27;11.00;99.90
52879;DHT22;38747;53.140;6.498;2022-10-26T07:55:54;11.10;99.90
52879;DHT22;38747;53.140;6.498;2022-10-26T07:58:20;11.10;99.90
52879;DHT22;38747;53.140;6.498;2022-10-26T08:00:49;11.20;99.90
52879;DHT22;38747;53.140;6.498;2022-10-26T08:03:15;11.20;99.90
52879;DHT22;38747;53.140;6.498;2022-10-26T08:05:41;11.40;99.90
52879;DHT22;38747;53.140;6.498;2022-10-26T08:08:07;11.40;99.90
52879;DHT22;38747;53.140;6.498;2022-10-26T08:10:32;11.40;99.90
52879;DHT22;38747;53.140;6.498;2022-10-26T08:12:59;11.50;99.90
52879;DHT22;38747;53.140;6.498;2022-10-26T08:15:24;11.60;99.90
52879;DHT22;38747;53.140;6.498;2022-10-26T08:17:50;11.60;99.90
52879;DHT22;38747;53.140;6.498;2022-10-26T08:20:15;11.70;99.90
52879;DHT22;38747;53.140;6.498;2022-10-26T08:22:41;11.80;99.90
52879;DHT22;38747;53.140;6.498;2022-10-26T08:25:07;11.90;99.90
52879;DHT22;38747;53.140;6.498;2022-10-26T08:27:32;11.90;99.90
52879;DHT22;38747;53.140;6.498;2022-10-26T08:29:58;12.10;99.90
52879;DHT22;38747;53.140;6.498;2022-10-26T08:32:24;12.20;99.90
52879;DHT22;38747;53.140;6.498;2022-10-26T08:34:49;12.30;99.90
52879;DHT22;38747;53.140;6.498;2022-10-26T08:37:15;12.40;99.90
52879;DHT22;38747;53.140;6.498;2022-10-26T08:39:41;12.50;99.90
52879;DHT22;38747;53.140;6.498;2022-10-26T08:42:12;12.50;99.90
52879;DHT22;38747;53.140;6.498;2022-10-26T08:44:46;12.60;99.90
52879;DHT22;38747;53.140;6.498;2022-10-26T08:49:46;12.70;99.90
52879;DHT22;38747;53.140;6.498;2022-10-26T08:52:18;12.70;99.90
52879;DHT22;38747;53.140;6.498;2022-10-26T08:54:56;12.80;99.90
52879;DHT22;38747;53.140;6.498;2022-10-26T08:57:30;12.90;99.90
52879;DHT22;38747;53.140;6.498;2022-10-26T09:00:02;12.90;99.90
52879;DHT22;38747;53.140;6.498;2022-10-26T09:02:28;13.00;99.90
52879;DHT22;38747;53.140;6.498;2022-10-26T09:04:55;13.10;99.90
52879;DHT22;38747;53.140;6.498;2022-10-26T09:10:54;13.30;99.90
52879;DHT22;38747;53.140;6.498;2022-10-26T09:17:02;13.40;99.90
52879;DHT22;38747;53.140;6.498;2022-10-26T09:19:27;13.50;99.90
52879;DHT22;38747;53.140;6.498;2022-10-26T09:21:59;13.40;99.90
52879;DHT22;38747;53.140;6.498;2022-10-26T09:24:29;13.50;99.90
52879;DHT22;38747;53.140;6.498;2022-10-26T09:29:46;13.60;99.90
52879;DHT22;38747;53.140;6.498;2022-10-26T09:32:19;13.70;99.90
52879;DHT22;38747;53.140;6.498;2022-10-26T09:34:49;13.70;99.90
52879;DHT22;38747;53.140;6.498;2022-10-26T09:37:28;13.80;99.90
52879;DHT22;38747;53.140;6.498;2022-10-26T09:40:17;13.80;99.90
52879;DHT22;38747;53.140;6.498;2022-10-26T09:42:54;13.90;99.90
52879;DHT22;38747;53.140;6.498;2022-10-26T09:45:31;14.00;99.90
52879;DHT22;38747;53.140;6.498;2022-10-26T09:48:04;14.00;99.90
52879;DHT22;38747;53.140;6.498;2022-10-26T09:50:36;14.10;99.90
52879;DHT22;38747;53.140;6.498;2022-10-26T09:53:03;14.30;99.90
52879;DHT22;38747;53.140;6.498;2022-10-26T09:55:30;14.40;99.90
52879;DHT22;38747;53.140;6.498;2022-10-26T09:58:00;14.50;99.90
52879;DHT22;38747;53.140;6.498;2022-10-26T10:00:27;14.50;99.90
52879;DHT22;38747;53.140;6.498;2022-10-26T10:02:55;14.50;99.90
52879;DHT22;38747;53.140;6.498;2022-10-26T10:05:32;14.60;99.90
52879;DHT22;38747;53.140;6.498;2022-10-26T10:11:02;14.70;99.90
52879;DHT22;38747;53.140;6.498;2022-10-26T10:13:35;14.70;99.90
52879;DHT22;38747;53.140;6.498;2022-10-26T10:16:10;14.60;99.90
52879;DHT22;38747;53.140;6.498;2022-10-26T10:18:36;14.50;99.90
52879;DHT22;38747;53.140;6.498;2022-10-26T10:21:04;14.60;99.90
52879;DHT22;38747;53.140;6.498;2022-10-26T10:23:35;14.60;99.90
52879;DHT22;38747;53.140;6.498;2022-10-26T10:26:10;14.70;99.90
52879;DHT22;38747;53.140;6.498;2022-10-26T10:28:37;14.70;99.90
52879;DHT22;38747;53.140;6.498;2022-10-26T10:31:17;14.80;99.90
52879;DHT22;38747;53.140;6.498;2022-10-26T10:33:43;14.90;99.90
52879;DHT22;38747;53.140;6.498;2022-10-26T10:36:14;15.00;99.90
52879;DHT22;38747;53.140;6.498;2022-10-26T10:38:45;15.10;99.90
52879;DHT22;38747;53.140;6.498;2022-10-26T10:41:32;15.10;99.90
52879;DHT22;38747;53.140;6.498;2022-10-26T10:44:19;15.20;99.90
52879;DHT22;38747;53.140;6.498;2022-10-26T10:46:48;15.30;99.90
52879;DHT22;38747;53.140;6.498;2022-10-26T10:49:21;15.40;99.90
52879;DHT22;38747;53.140;6.498;2022-10-26T10:51:48;15.40;99.90
52879;DHT22;38747;53.140;6.498;2022-10-26T10:54:28;15.50;99.90
52879;DHT22;38747;53.140;6.498;2022-10-26T10:57:13;15.60;99.90
52879;DHT22;38747;53.140;6.498;2022-10-26T11:00:05;15.70;99.90
52879;DHT22;38747;53.140;6.498;2022-10-26T11:08:11;15.90;99.90
52879;DHT22;38747;53.140;6.498;2022-10-26T11:10:49;16.10;99.90
52879;DHT22;38747;53.140;6.498;2022-10-26T11:13:24;16.10;99.90
52879;DHT22;38747;53.140;6.498;2022-10-26T11:16:02;16.10;99.90
52879;DHT22;38747;53.140;6.498;2022-10-26T11:18:48;16.20;99.90
52879;DHT22;38747;53.140;6.498;2022-10-26T11:21:22;16.20;99.90
52879;DHT22;38747;53.140;6.498;2022-10-26T11:26:50;16.30;99.90
52879;DHT22;38747;53.140;6.498;2022-10-26T11:29:37;16.30;99.90
52879;DHT22;38747;53.140;6.498;2022-10-26T11:32:18;16.40;99.90
52879;DHT22;38747;53.140;6.498;2022-10-26T11:35:04;16.40;99.90
52879;DHT22;38747;53.140;6.498;2022-10-26T11:48:33;16.80;99.90
52879;DHT22;38747;53.140;6.498;2022-10-26T11:51:00;16.90;99.90
52879;DHT22;38747;53.140;6.498;2022-10-26T11:53:30;17.00;99.90
52879;DHT22;38747;53.140;6.498;2022-10-26T11:56:01;17.10;99.90
52879;DHT22;38747;53.140;6.498;2022-10-26T11:58:28;17.20;99.90
52879;DHT22;38747;53.140;6.498;2022-10-26T12:01:08;17.30;99.90
52879;DHT22;38747;53.140;6.498;2022-10-26T12:03:48;17.30;99.90
52879;DHT22;38747;53.140;6.498;2022-10-26T12:06:20;17.30;99.90
52879;DHT22;38747;53.140;6.498;2022-10-26T12:08:50;17.40;99.90
52879;DHT22;38747;53.140;6.498;2022-10-26T12:14:25;17.50;99.90
52879;DHT22;38747;53.140;6.498;2022-10-26T12:17:17;17.50;99.90
52879;DHT22;38747;53.140;6.498;2022-10-26T12:22:38;17.40;99.90
52879;DHT22;38747;53.140;6.498;2022-10-26T12:25:19;17.30;99.90
52879;DHT22;38747;53.140;6.498;2022-10-26T12:35:31;17.70;99.90
52879;DHT22;38747;53.140;6.498;2022-10-26T12:37:58;17.70;99.90
52879;DHT22;38747;53.140;6.498;2022-10-26T12:45:41;17.50;99.90
52879;DHT22;38747;53.140;6.498;2022-10-26T12:48:21;17.40;99.90
52879;DHT22;38747;53.140;6.498;2022-10-26T12:50:50;17.40;99.90
52879;DHT22;38747;53.140;6.498;2022-10-26T12:53:18;17.40;99.90
52879;DHT22;38747;53.140;6.498;2022-10-26T13:01:29;17.40;99.90
52879;DHT22;38747;53.140;6.498;2022-10-26T13:09:16;17.40;99.90
52879;DHT22;38747;53.140;6.498;2022-10-26T13:11:55;17.40;99.90
52879;DHT22;38747;53.140;6.498;2022-10-26T13:14:53;17.40;99.90
52879;DHT22;38747;53.140;6.498;2022-10-26T13:17:25;17.50;99.90
52879;DHT22;38747;53.140;6.498;2022-10-26T13:19:58;17.40;99.90
52879;DHT22;38747;53.140;6.498;2022-10-26T13:22:27;17.40;99.90
52879;DHT22;38747;53.140;6.498;2022-10-26T13:25:02;17.40;99.90
52879;DHT22;38747;53.140;6.498;2022-10-26T13:32:38;17.50;99.90
52879;DHT22;38747;53.140;6.498;2022-10-26T13:35:09;17.50;99.90
52879;DHT22;38747;53.140;6.498;2022-10-26T13:37:43;17.50;99.90
52879;DHT22;38747;53.140;6.498;2022-10-26T13:40:16;17.50;99.90
52879;DHT22;38747;53.140;6.498;2022-10-26T13:42:48;17.40;99.90
52879;DHT22;38747;53.140;6.498;2022-10-26T13:45:18;17.40;99.90
52879;DHT22;38747;53.140;6.498;2022-10-26T13:48:09;17.40;99.90
52879;DHT22;38747;53.140;6.498;2022-10-26T13:50:54;17.40;99.90
52879;DHT22;38747;53.140;6.498;2022-10-26T13:55:53;17.30;99.90
52879;DHT22;38747;53.140;6.498;2022-10-26T13:58:35;17.20;99.90
52879;DHT22;38747;53.140;6.498;2022-10-26T14:03:33;17.30;99.90
52879;DHT22;38747;53.140;6.498;2022-10-26T14:05:59;17.30;99.90
52879;DHT22;38747;53.140;6.498;2022-10-26T14:08:28;17.30;99.90
52879;DHT22;38747;53.140;6.498;2022-10-26T14:10:56;17.30;99.90
52879;DHT22;38747;53.140;6.498;2022-10-26T14:13:25;17.30;99.90
52879;DHT22;38747;53.140;6.498;2022-10-26T14:15:52;17.30;99.90
52879;DHT22;38747;53.140;6.498;2022-10-26T14:18:22;17.30;99.90
52879;DHT22;38747;53.140;6.498;2022-10-26T14:20:57;17.30;99.90
52879;DHT22;38747;53.140;6.498;2022-10-26T14:23:25;17.30;99.90
52879;DHT22;38747;53.140;6.498;2022-10-26T14:25:54;17.30;99.90
52879;DHT22;38747;53.140;6.498;2022-10-26T14:28:31;17.40;99.90
52879;DHT22;38747;53.140;6.498;2022-10-26T14:31:21;17.30;99.90
52879;DHT22;38747;53.140;6.498;2022-10-26T14:33:47;17.30;99.90
52879;DHT22;38747;53.140;6.498;2022-10-26T14:36:14;17.20;99.90
52879;DHT22;38747;53.140;6.498;2022-10-26T14:38:50;17.10;99.90
52879;DHT22;38747;53.140;6.498;2022-10-26T14:41:17;17.10;99.90
52879;DHT22;38747;53.140;6.498;2022-10-26T14:43:44;17.00;99.90
52879;DHT22;38747;53.140;6.498;2022-10-26T14:46:13;17.00;99.90
52879;DHT22;38747;53.140;6.498;2022-10-26T14:48:53;16.90;99.90
52879;DHT22;38747;53.140;6.498;2022-10-26T14:51:24;16.80;99.90
52879;DHT22;38747;53.140;6.498;2022-10-26T14:53:53;16.70;99.90
52879;DHT22;38747;53.140;6.498;2022-10-26T14:58:49;16.60;99.90
52879;DHT22;38747;53.140;6.498;2022-10-26T15:01:27;16.50;99.90
52879;DHT22;38747;53.140;6.498;2022-10-26T15:04:06;16.50;99.90
52879;DHT22;38747;53.140;6.498;2022-10-26T15:06:39;16.50;99.90
52879;DHT22;38747;53.140;6.498;2022-10-26T15:09:06;16.40;99.90
52879;DHT22;38747;53.140;6.498;2022-10-26T15:11:51;16.40;99.90
52879;DHT22;38747;53.140;6.498;2022-10-26T15:14:17;16.30;99.90
52879;DHT22;38747;53.140;6.498;2022-10-26T15:16:51;16.30;99.90
52879;DHT22;38747;53.140;6.498;2022-10-26T15:19:19;16.30;99.90
52879;DHT22;38747;53.140;6.498;2022-10-26T15:21:49;16.30;99.90
52879;DHT22;38747;53.140;6.498;2022-10-26T15:24:37;16.30;99.90
52879;DHT22;38747;53.140;6.498;2022-10-26T15:27:09;16.30;99.90
52879;DHT22;38747;53.140;6.498;2022-10-26T15:29:39;16.30;99.90
52879;DHT22;38747;53.140;6.498;2022-10-26T15:35:27;16.30;99.90
52879;DHT22;38747;53.140;6.498;2022-10-26T15:37:54;16.30;99.90
52879;DHT22;38747;53.140;6.498;2022-10-26T15:40:21;16.30;99.90
52879;DHT22;38747;53.140;6.498;2022-10-26T15:42:49;16.30;99.90
52879;DHT22;38747;53.140;6.498;2022-10-26T15:45:16;16.30;99.90
52879;DHT22;38747;53.140;6.498;2022-10-26T15:47:43;16.20;99.90
52879;DHT22;38747;53.140;6.498;2022-10-26T15:50:15;16.30;99.90
52879;DHT22;38747;53.140;6.498;2022-10-26T15:52:42;16.20;99.90
52879;DHT22;38747;53.140;6.498;2022-10-26T15:55:08;16.10;99.90
52879;DHT22;38747;53.140;6.498;2022-10-26T15:57:34;16.10;99.90
52879;DHT22;38747;53.140;6.498;2022-10-26T16:00:00;16.00;99.90
52879;DHT22;38747;53.140;6.498;2022-10-26T16:02:26;16.00;99.90
52879;DHT22;38747;53.140;6.498;2022-10-26T16:04:52;16.00;99.90
52879;DHT22;38747;53.140;6.498;2022-10-26T16:07:19;16.00;99.90
52879;DHT22;38747;53.140;6.498;2022-10-26T16:09:45;16.00;99.90
52879;DHT22;38747;53.140;6.498;2022-10-26T16:12:11;15.90;99.90
52879;DHT22;38747;53.140;6.498;2022-10-26T16:14:38;15.90;99.90
52879;DHT22;38747;53.140;6.498;2022-10-26T16:17:04;15.90;99.90
52879;DHT22;38747;53.140;6.498;2022-10-26T16:19:30;15.90;99.90
52879;DHT22;38747;53.140;6.498;2022-10-26T16:21:56;15.80;99.90
52879;DHT22;38747;53.140;6.498;2022-10-26T16:24:22;15.80;99.90
52879;DHT22;38747;53.140;6.498;2022-10-26T16:26:48;15.80;99.90
52879;DHT22;38747;53.140;6.498;2022-10-26T16:29:13;15.80;99.90
52879;DHT22;38747;53.140;6.498;2022-10-26T16:31:39;15.80;99.90
52879;DHT22;38747;53.140;6.498;2022-10-26T16:34:04;15.80;99.90
52879;DHT22;38747;53.140;6.498;2022-10-26T16:36:30;15.80;99.90
52879;DHT22;38747;53.140;6.498;2022-10-26T16:38:59;15.80;99.90
52879;DHT22;38747;53.140;6.498;2022-10-26T16:41:24;15.80;99.90
52879;DHT22;38747;53.140;6.498;2022-10-26T16:43:50;15.80;99.90
52879;DHT22;38747;53.140;6.498;2022-10-26T16:46:20;15.80;99.90
52879;DHT22;38747;53.140;6.498;2022-10-26T16:48:47;15.80;99.90
52879;DHT22;38747;53.140;6.498;2022-10-26T16:51:19;15.80;99.90
52879;DHT22;38747;53.140;6.498;2022-10-26T16:53:46;15.90;99.90
52879;DHT22;38747;53.140;6.498;2022-10-26T16:56:15;15.90;99.90
52879;DHT22;38747;53.140;6.498;2022-10-26T16:58:41;15.90;99.90
52879;DHT22;38747;53.140;6.498;2022-10-26T17:01:08;15.80;99.90
52879;DHT22;38747;53.140;6.498;2022-10-26T17:03:34;15.80;99.90
52879;DHT22;38747;53.140;6.498;2022-10-26T17:06:02;15.70;99.90
52879;DHT22;38747;53.140;6.498;2022-10-26T17:08:29;15.70;99.90
52879;DHT22;38747;53.140;6.498;2022-10-26T17:11:05;15.60;99.90
52879;DHT22;38747;53.140;6.498;2022-10-26T17:13:31;15.50;99.90
52879;DHT22;38747;53.140;6.498;2022-10-26T17:16:01;15.50;99.90
52879;DHT22;38747;53.140;6.498;2022-10-26T17:18:27;15.50;99.90
52879;DHT22;38747;53.140;6.498;2022-10-26T17:20:53;15.40;99.90
52879;DHT22;38747;53.140;6.498;2022-10-26T17:23:19;15.40;99.90
52879;DHT22;38747;53.140;6.498;2022-10-26T17:25:44;15.40;99.90
52879;DHT22;38747;53.140;6.498;2022-10-26T17:28:11;15.30;99.90
52879;DHT22;38747;53.140;6.498;2022-10-26T17:30:37;15.30;99.90
52879;DHT22;38747;53.140;6.498;2022-10-26T17:33:03;15.30;99.90
52879;DHT22;38747;53.140;6.498;2022-10-26T17:35:29;15.30;99.90
52879;DHT22;38747;53.140;6.498;2022-10-26T17:37:56;15.30;99.90
52879;DHT22;38747;53.140;6.498;2022-10-26T17:40:22;15.30;99.90
52879;DHT22;38747;53.140;6.498;2022-10-26T17:42:48;15.30;99.90
52879;DHT22;38747;53.140;6.498;2022-10-26T17:45:13;15.30;99.90
52879;DHT22;38747;53.140;6.498;2022-10-26T17:47:39;15.30;99.90
52879;DHT22;38747;53.140;6.498;2022-10-26T17:50:05;15.30;99.90
52879;DHT22;38747;53.140;6.498;2022-10-26T17:52:30;15.30;99.90